Time;durP1;ratioP1;P1;durP2;ratioP2;P2;SDS_P1;SDS_P2;PMS_P1;PMS_P2;Temp;Humidity;BMP_temperature;BMP_pressure;BME280_temperature;BME280_humidity;BME280_pressure;Samples;Min_cycle;Max_cycle;Signal;HPM_P1;HPM_P2
2023/08/28 00:01:41;;;;;;;2.17;1.60;;;12.90;99.90;;;;;;6134891;23;20190;-70
2023/08/28 00:04:06;;;;;;;1.80;1.30;;;12.90;99.90;;;;;;6130866;23;20211;-70
2023/08/28 00:06:32;;;;;;;2.90;1.73;;;12.90;99.90;;;;;;6132281;23;20152;-70
2023/08/28 00:08:58;;;;;;;1.60;1.43;;;12.90;99.90;;;;;;6131733;23;20183;-71
2023/08/28 00:11:23;;;;;;;1.57;1.27;;;12.90;99.90;;;;;;6136556;23;20174;-72
2023/08/28 00:13:49;;;;;;;2.03;1.40;;;12.80;99.90;;;;;;6142085;23;20143;-71
2023/08/28 00:16:14;;;;;;;2.40;1.33;;;12.90;99.90;;;;;;6095064;23;20205;-74
2023/08/28 00:18:40;;;;;;;2.53;1.40;;;12.80;99.90;;;;;;6106217;23;20439;-70
2023/08/28 00:21:06;;;;;;;1.63;1.40;;;12.80;99.90;;;;;;6131457;23;20565;-70
2023/08/28 00:23:32;;;;;;;3.10;1.60;;;12.80;99.90;;;;;;6131195;23;20144;-70
2023/08/28 00:25:59;;;;;;;2.20;1.40;;;12.80;99.90;;;;;;6130613;23;20445;-70
2023/08/28 00:28:24;;;;;;;1.70;1.30;;;12.80;99.90;;;;;;6131467;23;20352;-70
2023/08/28 00:30:50;;;;;;;1.63;1.47;;;12.80;99.90;;;;;;6105563;23;20426;-72
2023/08/28 00:33:15;;;;;;;2.27;1.50;;;12.80;99.90;;;;;;6106803;23;20155;-70
2023/08/28 00:35:42;;;;;;;1.97;1.53;;;12.70;99.90;;;;;;6132424;23;20142;-70
2023/08/28 00:38:09;;;;;;;2.00;1.27;;;12.70;99.90;;;;;;6105462;23;20368;-71
2023/08/28 00:40:40;;;;;;;1.50;1.20;;;12.70;99.90;;;;;;6134434;23;20523;-70
2023/08/28 00:43:06;;;;;;;1.93;1.43;;;12.70;99.90;;;;;;6139145;23;20368;-72
2023/08/28 00:45:33;;;;;;;1.73;1.30;;;12.70;99.90;;;;;;6111176;23;20633;-71
2023/08/28 00:47:58;;;;;;;1.90;1.53;;;12.60;99.90;;;;;;6112150;23;20429;-72
2023/08/28 00:50:25;;;;;;;2.87;1.53;;;12.60;99.90;;;;;;6111201;23;20395;-70
2023/08/28 00:52:51;;;;;;;1.87;1.50;;;12.60;99.90;;;;;;6106133;23;20368;-70
2023/08/28 00:55:16;;;;;;;2.50;1.63;;;12.60;99.90;;;;;;6132339;23;20415;-70
2023/08/28 00:57:44;;;;;;;3.40;2.27;;;12.60;99.90;;;;;;6104731;23;20145;-71
2023/08/28 01:00:10;;;;;;;2.77;2.10;;;12.60;99.90;;;;;;6130953;23;20465;-71
2023/08/28 01:02:38;;;;;;;3.07;1.93;;;12.60;99.90;;;;;;6132840;23;20128;-71
2023/08/28 01:05:05;;;;;;;2.47;2.13;;;12.60;99.90;;;;;;6106329;23;20457;-70
2023/08/28 01:07:38;;;;;;;3.00;2.20;;;12.70;99.90;;;;;;6110075;23;20367;-72
2023/08/28 01:10:09;;;;;;;3.10;2.33;;;12.60;99.90;;;;;;6105685;23;20891;-70
2023/08/28 01:12:43;;;;;;;3.27;2.10;;;12.70;99.90;;;;;;6130706;23;20363;-70
2023/08/28 01:15:16;;;;;;;3.00;1.83;;;12.60;99.90;;;;;;6131015;23;20356;-70
2023/08/28 01:17:44;;;;;;;2.57;2.03;;;12.60;99.90;;;;;;6132885;23;20365;-71
2023/08/28 01:20:15;;;;;;;3.03;2.20;;;12.60;99.90;;;;;;6106428;23;20391;-71
2023/08/28 01:23:06;;;;;;;5.17;2.20;;;12.60;99.90;;;;;;6106887;23;20443;-71
2023/08/28 01:25:32;;;;;;;2.53;2.33;;;12.60;99.90;;;;;;6132253;23;20365;-69
2023/08/28 01:27:59;;;;;;;2.37;1.93;;;12.60;99.90;;;;;;6106817;23;20364;-70
2023/08/28 01:30:25;;;;;;;4.63;2.43;;;12.60;99.90;;;;;;6104210;23;20399;-70
2023/08/28 01:32:51;;;;;;;2.67;1.93;;;12.60;99.90;;;;;;6130521;23;20360;-70
2023/08/28 01:35:26;;;;;;;3.60;2.50;;;12.60;99.90;;;;;;6105412;23;20633;-70
2023/08/28 01:38:23;;;;;;;2.17;1.90;;;12.60;99.90;;;;;;6105332;23;20339;-70
2023/08/28 01:40:49;;;;;;;1.93;1.70;;;12.60;99.90;;;;;;6104099;23;20458;-71
2023/08/28 01:43:21;;;;;;;2.63;2.00;;;12.60;99.90;;;;;;6106278;23;20371;-71
2023/08/28 01:45:49;;;;;;;2.83;2.00;;;12.60;99.90;;;;;;6130134;23;20383;-71
2023/08/28 01:48:15;;;;;;;2.13;1.63;;;12.60;99.90;;;;;;6104603;23;20379;-70
2023/08/28 01:50:40;;;;;;;2.43;2.10;;;12.50;99.90;;;;;;6129837;23;20846;-70
2023/08/28 01:53:06;;;;;;;2.40;2.20;;;12.50;99.90;;;;;;6105141;23;20419;-70
2023/08/28 01:56:06;;;;;;;2.50;2.30;;;12.50;99.90;;;;;;6104410;23;20148;-70
2023/08/28 01:58:39;;;;;;;2.33;2.07;;;12.40;99.90;;;;;;6105530;23;20147;-70
2023/08/28 02:01:04;;;;;;;2.40;2.20;;;12.40;99.90;;;;;;6104579;23;20448;-70
2023/08/28 02:03:30;;;;;;;2.63;2.10;;;12.40;99.90;;;;;;6104638;23;20364;-70
2023/08/28 02:05:56;;;;;;;2.60;2.20;;;12.40;99.90;;;;;;6104444;23;20148;-70
2023/08/28 02:08:21;;;;;;;3.03;2.73;;;12.40;99.90;;;;;;6104397;23;20932;-71
2023/08/28 02:10:47;;;;;;;2.50;2.30;;;12.40;99.90;;;;;;6104288;23;20178;-71
2023/08/28 02:13:13;;;;;;;2.30;2.10;;;12.40;99.90;;;;;;6103453;23;20515;-70
2023/08/28 02:15:39;;;;;;;2.60;2.37;;;12.30;99.90;;;;;;6104756;23;20148;-71
2023/08/28 02:18:05;;;;;;;2.83;2.47;;;12.30;99.90;;;;;;6105081;23;20163;-71
2023/08/28 02:20:31;;;;;;;2.63;2.27;;;12.30;99.90;;;;;;6103098;23;20430;-70
2023/08/28 02:22:58;;;;;;;2.50;2.30;;;12.30;99.90;;;;;;6104193;23;20455;-70
2023/08/28 02:25:23;;;;;;;3.13;2.27;;;12.30;99.90;;;;;;6129822;23;20364;-70
2023/08/28 02:27:49;;;;;;;2.27;1.90;;;12.30;99.90;;;;;;6130209;23;20520;-70
2023/08/28 02:30:18;;;;;;;3.37;2.50;;;12.20;99.90;;;;;;6103657;23;20163;-70
2023/08/28 02:32:45;;;;;;;2.60;2.40;;;12.20;99.90;;;;;;6104155;23;20352;-70
2023/08/28 02:35:13;;;;;;;2.33;1.90;;;12.20;99.90;;;;;;6104467;23;20457;-70
2023/08/28 02:37:39;;;;;;;4.43;2.87;;;12.20;99.90;;;;;;6130196;23;20217;-70
2023/08/28 02:40:06;;;;;;;3.23;2.50;;;12.20;99.90;;;;;;6105009;23;20391;-70
2023/08/28 02:42:32;;;;;;;3.20;2.77;;;12.20;99.90;;;;;;6132159;23;20368;-71
2023/08/28 02:44:57;;;;;;;3.40;2.90;;;12.20;99.90;;;;;;6106302;23;20509;-71
2023/08/28 02:47:23;;;;;;;3.00;2.67;;;12.20;99.90;;;;;;6132406;23;20533;-71
2023/08/28 02:49:50;;;;;;;2.43;2.23;;;12.20;99.90;;;;;;6106005;23;20179;-71
2023/08/28 02:52:15;;;;;;;2.47;2.27;;;12.20;99.90;;;;;;6130656;23;20393;-70
2023/08/28 02:54:41;;;;;;;2.50;2.30;;;12.10;99.90;;;;;;6129686;23;20152;-71
2023/08/28 02:57:06;;;;;;;2.50;2.23;;;12.20;99.90;;;;;;6104018;23;20149;-69
2023/08/28 02:59:32;;;;;;;2.63;2.43;;;12.20;99.90;;;;;;6103711;23;20529;-69
2023/08/28 03:01:58;;;;;;;2.17;1.90;;;12.20;99.90;;;;;;6105269;23;20179;-71
2023/08/28 03:04:24;;;;;;;2.23;1.97;;;12.30;99.90;;;;;;6106050;23;20398;-71
2023/08/28 03:06:49;;;;;;;3.50;2.27;;;12.30;99.90;;;;;;6131579;23;20195;-71
2023/08/28 03:09:15;;;;;;;2.90;2.10;;;12.40;99.90;;;;;;6104188;23;20553;-71
2023/08/28 03:11:41;;;;;;;2.57;2.27;;;12.40;99.90;;;;;;6128955;23;20243;-71
2023/08/28 03:14:07;;;;;;;3.20;2.00;;;12.40;99.90;;;;;;6129670;23;20133;-69
2023/08/28 03:16:33;;;;;;;2.50;2.30;;;12.40;99.90;;;;;;6104121;23;20372;-70
2023/08/28 03:18:59;;;;;;;3.03;2.30;;;12.40;99.90;;;;;;6103809;23;20709;-71
2023/08/28 03:21:24;;;;;;;2.60;2.30;;;12.40;99.90;;;;;;6104492;23;20183;-70
2023/08/28 03:23:51;;;;;;;2.30;1.83;;;12.40;99.90;;;;;;6130511;23;20209;-71
2023/08/28 03:26:17;;;;;;;2.60;1.93;;;12.30;99.90;;;;;;6133627;23;20156;-70
2023/08/28 03:28:42;;;;;;;3.23;2.50;;;12.20;99.90;;;;;;6133181;23;20363;-70
2023/08/28 03:31:08;;;;;;;2.23;1.70;;;12.20;99.90;;;;;;6132895;23;20212;-71
2023/08/28 03:33:35;;;;;;;1.70;1.53;;;12.20;99.90;;;;;;6133224;23;20243;-69
2023/08/28 03:36:01;;;;;;;2.10;1.80;;;12.10;99.90;;;;;;6132637;23;20144;-69
2023/08/28 03:38:27;;;;;;;3.13;2.10;;;12.10;99.90;;;;;;6133437;23;20371;-71
2023/08/28 03:40:52;;;;;;;1.97;1.77;;;12.10;99.90;;;;;;6107257;23;20733;-71
2023/08/28 03:43:18;;;;;;;4.70;2.60;;;12.10;99.90;;;;;;6133706;23;20136;-70
2023/08/28 03:45:44;;;;;;;2.23;2.03;;;12.00;99.90;;;;;;6106594;23;20141;-70
2023/08/28 03:48:10;;;;;;;2.00;1.70;;;12.00;99.90;;;;;;6107475;23;20536;-70
2023/08/28 03:50:35;;;;;;;2.37;2.10;;;11.90;99.90;;;;;;6106456;23;20403;-70
2023/08/28 03:53:01;;;;;;;1.90;1.67;;;11.90;99.90;;;;;;6133634;23;20194;-70
2023/08/28 03:55:29;;;;;;;2.10;1.50;;;11.80;99.90;;;;;;6109955;23;20215;-71
2023/08/28 03:57:55;;;;;;;4.23;2.10;;;11.80;99.90;;;;;;6110592;23;20148;-70
2023/08/28 04:00:22;;;;;;;2.67;2.00;;;11.80;99.90;;;;;;6135209;23;20429;-70
2023/08/28 04:02:48;;;;;;;2.83;2.53;;;11.80;99.90;;;;;;6107710;23;20372;-70
2023/08/28 04:05:16;;;;;;;3.70;2.87;;;11.80;99.90;;;;;;6108835;23;20213;-71
2023/08/28 04:07:43;;;;;;;2.97;2.67;;;11.80;99.90;;;;;;6133765;23;20364;-71
2023/08/28 04:10:09;;;;;;;2.87;2.57;;;11.80;99.90;;;;;;6133149;23;20403;-72
2023/08/28 04:12:35;;;;;;;2.60;2.40;;;11.80;99.90;;;;;;6107232;23;20787;-70
2023/08/28 04:15:02;;;;;;;3.13;2.40;;;11.80;99.90;;;;;;6132577;23;20379;-70
2023/08/28 04:17:27;;;;;;;3.20;2.90;;;11.80;99.90;;;;;;6133515;23;20391;-70
2023/08/28 04:19:55;;;;;;;2.90;2.60;;;11.80;99.90;;;;;;6107427;23;20414;-71
2023/08/28 04:22:22;;;;;;;4.13;2.70;;;11.80;99.90;;;;;;6106818;23;20514;-70
2023/08/28 04:24:50;;;;;;;3.17;2.87;;;11.90;99.90;;;;;;6133315;23;20403;-71
2023/08/28 04:27:16;;;;;;;4.50;2.90;;;11.90;99.90;;;;;;6134803;23;20352;-73
2023/08/28 04:29:42;;;;;;;3.77;3.10;;;12.00;99.90;;;;;;6136481;23;20423;-71
2023/08/28 04:32:09;;;;;;;3.20;2.90;;;12.00;99.90;;;;;;6111608;23;20153;-72
2023/08/28 04:34:36;;;;;;;2.60;2.30;;;12.00;99.90;;;;;;6112816;23;20796;-72
2023/08/28 04:37:05;;;;;;;2.70;2.50;;;12.10;99.90;;;;;;6136349;23;20782;-72
2023/08/28 04:39:30;;;;;;;3.30;2.40;;;12.10;99.90;;;;;;6111765;23;20383;-74
2023/08/28 04:41:56;;;;;;;2.57;2.23;;;12.20;99.90;;;;;;6138871;23;20550;-71
2023/08/28 04:44:22;;;;;;;2.90;2.50;;;12.30;99.90;;;;;;6135198;23;20144;-72
2023/08/28 04:46:47;;;;;;;3.30;2.80;;;12.40;99.90;;;;;;6112193;23;20144;-74
2023/08/28 04:49:14;;;;;;;3.07;2.37;;;12.50;99.90;;;;;;6112117;23;20144;-72
2023/08/28 04:51:40;;;;;;;3.07;2.20;;;12.70;99.90;;;;;;6111214;23;20173;-72
2023/08/28 04:54:08;;;;;;;3.50;2.10;;;12.70;99.90;;;;;;6090608;23;20869;-73
2023/08/28 04:56:34;;;;;;;3.43;2.57;;;12.80;99.90;;;;;;6142962;23;20364;-74
2023/08/28 04:59:01;;;;;;;3.17;2.77;;;12.90;99.90;;;;;;6092708;23;20524;-72
2023/08/28 05:01:26;;;;;;;4.57;3.50;;;12.90;99.90;;;;;;6114115;23;20426;-72
2023/08/28 05:03:52;;;;;;;2.70;2.40;;;12.90;99.90;;;;;;6113803;23;20140;-74
2023/08/28 05:06:17;;;;;;;6.90;4.07;;;12.90;99.90;;;;;;6140737;23;20212;-74
2023/08/28 05:08:43;;;;;;;4.10;3.60;;;13.00;99.90;;;;;;6114963;23;20186;-75
2023/08/28 05:11:09;;;;;;;4.27;3.30;;;13.00;99.90;;;;;;6114556;23;20174;-72
2023/08/28 05:13:34;;;;;;;3.93;2.93;;;13.00;99.90;;;;;;6112308;23;20226;-71
2023/08/28 05:16:01;;;;;;;3.93;3.00;;;13.00;99.90;;;;;;6113676;23;20213;-72
2023/08/28 05:18:27;;;;;;;3.40;3.10;;;13.00;99.90;;;;;;6112973;23;20440;-76
2023/08/28 05:20:54;;;;;;;3.87;3.03;;;13.00;99.90;;;;;;6114265;23;20180;-74
2023/08/28 05:23:25;;;;;;;5.23;3.87;;;13.00;99.90;;;;;;6116169;23;20379;-74
2023/08/28 05:25:54;;;;;;;5.73;4.53;;;13.10;99.90;;;;;;6115153;23;20402;-74
2023/08/28 05:28:20;;;;;;;5.50;3.40;;;13.10;99.90;;;;;;6113518;23;20659;-75
2023/08/28 05:30:46;;;;;;;7.40;3.80;;;13.10;99.90;;;;;;6114561;23;20430;-73
2023/08/28 05:33:11;;;;;;;5.00;3.87;;;13.20;99.90;;;;;;6116929;23;20376;-72
2023/08/28 05:35:39;;;;;;;4.50;3.73;;;13.30;99.90;;;;;;6117122;23;20163;-75
2023/08/28 05:38:06;;;;;;;4.97;3.20;;;13.40;99.90;;;;;;6091002;23;20841;-74
2023/08/28 05:40:32;;;;;;;3.87;2.47;;;13.50;99.90;;;;;;6118700;23;20423;-75
2023/08/28 05:42:57;;;;;;;4.20;2.70;;;13.70;99.90;;;;;;6116833;23;20385;-74
2023/08/28 05:45:23;;;;;;;2.90;2.60;;;13.70;99.90;;;;;;6114578;23;20377;-77
2023/08/28 05:47:48;;;;;;;2.70;2.50;;;13.80;99.90;;;;;;6139847;23;20188;-73
2023/08/28 05:50:17;;;;;;;4.33;3.70;;;13.70;99.90;;;;;;6113256;23;20187;-77
2023/08/28 05:52:42;;;;;;;4.13;3.50;;;13.70;99.90;;;;;;6140397;23;20143;-73
2023/08/28 05:55:08;;;;;;;4.30;3.33;;;13.70;99.90;;;;;;6090565;23;20438;-73
2023/08/28 05:57:34;;;;;;;3.80;3.40;;;13.60;99.90;;;;;;6112814;23;20151;-72
2023/08/28 06:00:00;;;;;;;3.37;2.83;;;13.60;99.90;;;;;;6137696;23;20227;-73
2023/08/28 06:02:26;;;;;;;3.47;2.90;;;13.60;99.90;;;;;;6088615;23;20524;-75
2023/08/28 06:04:54;;;;;;;3.20;2.33;;;13.60;99.90;;;;;;6089640;23;20364;-78
2023/08/28 06:07:20;;;;;;;2.13;1.93;;;13.60;99.90;;;;;;6090969;23;20375;-75
2023/08/28 06:09:47;;;;;;;2.37;1.70;;;13.70;99.90;;;;;;6111479;23;20219;-73
2023/08/28 06:12:12;;;;;;;4.73;4.20;;;13.80;99.90;;;;;;6112713;23;20399;-72
2023/08/28 06:14:38;;;;;;;6.60;3.23;;;13.80;99.90;;;;;;6138190;23;20151;-73
2023/08/28 06:17:03;;;;;;;6.20;3.87;;;13.90;99.90;;;;;;6112111;23;20151;-72
2023/08/28 06:19:29;;;;;;;4.10;3.30;;;13.90;99.90;;;;;;6113789;23;20202;-74
2023/08/28 06:21:55;;;;;;;2.80;2.50;;;14.00;99.90;;;;;;6112616;23;20561;-74
2023/08/28 06:24:21;;;;;;;3.30;2.37;;;14.00;99.90;;;;;;6112011;23;20357;-71
2023/08/28 06:26:47;;;;;;;2.70;2.40;;;14.00;99.90;;;;;;6114982;23;20144;-73
2023/08/28 06:29:13;;;;;;;4.00;3.00;;;14.10;99.90;;;;;;6112552;23;20363;-74
2023/08/28 06:31:39;;;;;;;2.70;2.20;;;14.20;99.90;;;;;;6088206;23;20489;-77
2023/08/28 06:34:04;;;;;;;6.97;4.33;;;14.30;99.90;;;;;;6138462;23;20387;-74
2023/08/28 06:36:30;;;;;;;4.37;3.50;;;14.40;99.90;;;;;;6112934;23;20187;-74
2023/08/28 06:38:56;;;;;;;4.47;3.27;;;14.50;99.90;;;;;;6138592;23;20139;-74
2023/08/28 06:41:22;;;;;;;3.97;2.50;;;14.50;99.90;;;;;;6087871;23;20436;-71
2023/08/28 06:43:48;;;;;;;4.00;2.47;;;14.50;99.90;;;;;;6111981;23;20372;-74
2023/08/28 06:46:15;;;;;;;3.47;2.60;;;14.60;99.90;;;;;;6136872;23;20195;-75
2023/08/28 06:48:44;;;;;;;3.50;2.40;;;14.70;99.90;;;;;;6138613;23;20543;-73
2023/08/28 06:51:11;;;;;;;5.00;2.47;;;14.80;99.90;;;;;;6116318;23;20396;-73
2023/08/28 06:53:37;;;;;;;3.00;2.23;;;14.80;99.90;;;;;;6140107;23;20400;-74
2023/08/28 06:56:04;;;;;;;4.63;3.20;;;14.90;99.90;;;;;;6138822;23;20691;-77
2023/08/28 06:58:30;;;;;;;6.17;3.97;;;14.90;99.90;;;;;;6111838;23;20829;-73
2023/08/28 07:00:55;;;;;;;4.70;3.23;;;15.00;99.90;;;;;;6113798;23;20393;-74
2023/08/28 07:03:21;;;;;;;2.53;1.87;;;15.10;99.90;;;;;;6141100;23;20375;-72
2023/08/28 07:05:47;;;;;;;5.13;2.90;;;15.20;99.90;;;;;;6112514;23;20148;-73
2023/08/28 07:08:12;;;;;;;5.70;4.00;;;15.30;99.90;;;;;;6138529;23;20180;-72
2023/08/28 07:10:38;;;;;;;5.50;3.40;;;15.30;99.90;;;;;;6113155;23;20191;-71
2023/08/28 07:13:04;;;;;;;7.47;4.90;;;15.40;99.90;;;;;;6111353;23;20136;-74
2023/08/28 07:15:29;;;;;;;5.50;3.83;;;15.40;99.90;;;;;;6115418;23;20154;-77
2023/08/28 07:17:55;;;;;;;7.10;4.70;;;15.50;99.90;;;;;;6142620;23;20140;-74
2023/08/28 07:20:23;;;;;;;6.73;4.67;;;15.50;99.90;;;;;;6143025;23;20453;-76
2023/08/28 07:22:53;;;;;;;7.03;3.83;;;15.60;99.90;;;;;;6114777;23;20136;-75
2023/08/28 07:25:22;;;;;;;7.50;3.20;;;15.70;99.90;;;;;;6114471;23;20375;-74
2023/08/28 07:27:57;;;;;;;7.97;4.10;;;15.80;99.90;;;;;;6139797;23;20364;-73
2023/08/28 07:30:22;;;;;;;4.30;2.90;;;15.80;99.90;;;;;;6112006;23;20391;-71
2023/08/28 07:32:48;;;;;;;4.40;3.43;;;15.90;99.90;;;;;;6139329;23;20367;-72
2023/08/28 07:35:14;;;;;;;5.50;4.00;;;16.00;99.90;;;;;;6142522;23;20156;-77
2023/08/28 07:37:40;;;;;;;4.40;3.13;;;16.10;99.90;;;;;;6116324;23;20132;-72
2023/08/28 07:40:07;;;;;;;8.17;4.93;;;16.10;99.90;;;;;;6091023;23;20398;-77
2023/08/28 07:42:33;;;;;;;6.93;3.60;;;16.10;99.90;;;;;;6119483;23;20151;-76
2023/08/28 07:44:59;;;;;;;8.40;4.23;;;16.20;99.90;;;;;;6119477;23;20534;-78
2023/08/28 07:47:26;;;;;;;9.60;4.27;;;16.30;99.90;;;;;;6115341;23;20372;-74
2023/08/28 07:49:52;;;;;;;5.30;4.20;;;16.30;99.90;;;;;;6089890;23;20404;-75
2023/08/28 07:52:20;;;;;;;6.43;5.50;;;16.40;99.90;;;;;;6114697;23;20373;-73
2023/08/28 07:54:48;;;;;;;7.37;4.23;;;16.50;99.90;;;;;;6093080;23;20423;-74
2023/08/28 07:57:13;;;;;;;4.53;3.43;;;16.60;99.90;;;;;;6115992;23;20849;-74
2023/08/28 08:00:22;;;;;;;6.63;4.17;;;16.70;99.90;;;;;;6116446;23;20165;-77
2023/08/28 08:14:24;;;;;;;6.03;4.53;;;17.40;99.90;;;;;;6129751;23;22885;-72
2023/08/28 08:16:50;;;;;;;5.60;3.77;;;17.40;99.90;;;;;;6121719;23;20386;-78
2023/08/28 08:19:18;;;;;;;5.03;4.53;;;17.50;99.90;;;;;;6099126;23;20461;-76
2023/08/28 08:21:43;;;;;;;5.47;4.50;;;17.60;99.90;;;;;;6111284;23;20179;-75
2023/08/28 08:24:09;;;;;;;4.17;3.67;;;17.50;99.90;;;;;;6112051;23;20346;-76
2023/08/28 08:26:34;;;;;;;4.17;2.90;;;17.60;99.90;;;;;;6114480;23;20160;-75
2023/08/28 08:29:00;;;;;;;4.23;2.70;;;17.60;99.90;;;;;;6090472;23;20142;-73
2023/08/28 08:31:26;;;;;;;4.50;3.47;;;17.70;99.90;;;;;;6087242;23;20478;-75
2023/08/28 08:33:51;;;;;;;5.63;4.07;;;17.80;99.90;;;;;;6063012;23;20163;-75
2023/08/28 08:36:17;;;;;;;6.23;4.07;;;17.90;99.90;;;;;;6111085;23;20130;-73
2023/08/28 08:38:42;;;;;;;11.70;5.00;;;17.90;99.90;;;;;;6084498;23;20196;-75
2023/08/28 08:41:09;;;;;;;6.00;3.90;;;17.90;99.90;;;;;;6112092;23;20172;-73
2023/08/28 08:43:35;;;;;;;7.40;4.47;;;17.90;99.90;;;;;;6064395;23;20164;-75
2023/08/28 08:46:04;;;;;;;6.97;4.30;;;17.90;99.90;;;;;;6086439;23;20376;-74
2023/08/28 08:48:34;;;;;;;10.60;4.43;;;18.00;99.90;;;;;;6063709;23;20149;-73
2023/08/28 08:51:07;;;;;;;4.57;3.50;;;18.00;99.90;;;;;;6113598;23;20395;-75
2023/08/28 08:54:04;;;;;;;4.33;3.90;;;18.30;99.90;;;;;;6085539;23;20388;-74
2023/08/28 08:56:33;;;;;;;9.10;6.20;;;18.50;99.90;;;;;;6112467;23;20667;-74
2023/08/28 08:58:59;;;;;;;5.30;4.60;;;18.70;99.90;;;;;;6111418;23;20371;-72
2023/08/28 09:01:26;;;;;;;7.17;3.90;;;19.00;99.90;;;;;;6088413;23;20424;-76
2023/08/28 09:03:52;;;;;;;6.50;3.97;;;19.10;99.90;;;;;;6113672;23;20364;-74
2023/08/28 09:06:19;;;;;;;5.40;4.03;;;19.30;98.30;;;;;;6113144;23;20361;-75
2023/08/28 09:08:46;;;;;;;5.07;3.23;;;19.30;97.10;;;;;;6111194;23;20365;-75
2023/08/28 09:11:11;;;;;;;6.10;3.93;;;19.30;95.40;;;;;;6088236;23;20925;-76
2023/08/28 09:13:38;;;;;;;4.97;4.07;;;19.20;94.60;;;;;;6088402;23;20416;-74
2023/08/28 09:16:04;;;;;;;6.37;4.47;;;19.20;95.50;;;;;;6088825;23;20208;-77
2023/08/28 09:18:30;;;;;;;5.13;3.60;;;19.10;95.10;;;;;;6110795;23;20628;-75
2023/08/28 09:21:12;;;;;;;4.03;3.60;;;19.20;95.70;;;;;;6112114;23;20169;-76
2023/08/28 09:23:43;;;;;;;3.87;2.70;;;19.30;95.50;;;;;;6084327;23;20364;-73
2023/08/28 09:26:18;;;;;;;4.37;3.00;;;19.50;95.50;;;;;;6086216;23;20426;-78
2023/08/28 09:29:02;;;;;;;4.47;2.40;;;19.70;93.10;;;;;;6061497;23;20434;-74
2023/08/28 09:31:32;;;;;;;2.77;2.23;;;19.80;90.80;;;;;;6111132;23;20456;-75
2023/08/28 09:33:58;;;;;;;4.63;2.50;;;19.80;90.70;;;;;;6112172;23;20395;-77
2023/08/28 09:36:25;;;;;;;4.03;2.70;;;19.90;90.60;;;;;;6086606;23;20443;-76
2023/08/28 09:38:51;;;;;;;5.63;2.63;;;20.10;88.70;;;;;;6086912;23;20502;-76
2023/08/28 09:41:17;;;;;;;3.13;2.40;;;20.30;88.00;;;;;;6060440;23;20447;-74
2023/08/28 09:43:43;;;;;;;3.30;2.10;;;20.30;85.60;;;;;;6083915;23;20408;-74
2023/08/28 09:46:08;;;;;;;3.10;2.47;;;20.40;85.30;;;;;;6085749;23;20369;-72
2023/08/28 09:48:35;;;;;;;6.90;3.10;;;20.40;84.20;;;;;;6061125;23;20144;-75
2023/08/28 09:51:06;;;;;;;4.30;3.90;;;20.40;84.00;;;;;;6088149;23;20556;-76
2023/08/28 09:53:32;;;;;;;5.23;3.20;;;20.40;83.10;;;;;;6110875;23;20604;-75
2023/08/28 09:55:58;;;;;;;5.97;3.13;;;20.50;83.10;;;;;;6085278;23;20752;-74
2023/08/28 09:58:27;;;;;;;3.40;2.80;;;20.60;81.60;;;;;;6109469;23;20365;-73
2023/08/28 10:00:54;;;;;;;4.90;3.33;;;20.70;79.00;;;;;;6085512;23;20439;-74
2023/08/28 10:03:21;;;;;;;4.47;3.40;;;20.80;79.30;;;;;;6063394;23;20408;-75
2023/08/28 10:05:49;;;;;;;5.00;4.00;;;20.80;78.70;;;;;;6088050;23;20369;-77
2023/08/28 10:08:15;;;;;;;5.93;5.43;;;20.80;78.30;;;;;;6086180;23;20353;-77
2023/08/28 10:10:50;;;;;;;10.40;5.87;;;20.90;76.70;;;;;;6084437;23;20487;-75
2023/08/28 10:13:21;;;;;;;6.30;5.60;;;20.80;76.60;;;;;;6038232;23;20389;-76
2023/08/28 10:15:53;;;;;;;6.93;5.40;;;20.90;75.90;;;;;;6115929;23;20444;-77
2023/08/28 10:18:29;;;;;;;7.30;6.60;;;20.90;75.90;;;;;;6112169;23;20761;-76
2023/08/28 10:20:56;;;;;;;6.10;5.50;;;21.00;74.60;;;;;;6064154;23;20423;-75
2023/08/28 10:23:24;;;;;;;6.43;3.73;;;21.10;74.30;;;;;;6090047;23;20439;-75
2023/08/28 10:25:53;;;;;;;4.77;3.60;;;21.20;73.90;;;;;;6112488;23;20361;-76
2023/08/28 10:28:19;;;;;;;3.80;3.50;;;21.10;74.20;;;;;;6110791;23;20699;-77
2023/08/28 10:30:47;;;;;;;4.87;3.40;;;21.10;74.00;;;;;;6059787;23;20502;-76
2023/08/28 10:33:14;;;;;;;4.20;3.30;;;21.30;72.90;;;;;;6085339;23;20395;-76
2023/08/28 10:35:44;;;;;;;2.90;2.50;;;21.10;71.30;;;;;;6086345;23;20545;-75
2023/08/28 10:38:11;;;;;;;5.33;3.50;;;21.10;71.80;;;;;;6085240;23;20408;-75
2023/08/28 10:40:37;;;;;;;2.63;2.43;;;21.10;71.70;;;;;;6086368;23;20804;-74
2023/08/28 10:43:03;;;;;;;4.23;2.30;;;21.10;72.00;;;;;;6089796;23;20379;-77
2023/08/28 10:45:29;;;;;;;4.23;2.10;;;21.30;71.80;;;;;;6087955;23;20129;-77
2023/08/28 10:47:55;;;;;;;3.80;2.20;;;21.50;71.40;;;;;;6085936;23;20372;-77
2023/08/28 10:50:21;;;;;;;4.17;2.43;;;21.80;70.50;;;;;;6085598;23;20416;-77
2023/08/28 10:52:46;;;;;;;2.87;2.57;;;21.80;68.30;;;;;;6087957;23;20223;-74
2023/08/28 10:55:17;;;;;;;3.40;1.73;;;21.70;67.30;;;;;;6114554;23;20188;-76
2023/08/28 10:57:49;;;;;;;3.17;1.97;;;21.70;66.80;;;;;;6089430;23;20368;-74
2023/08/28 11:00:20;;;;;;;4.13;3.03;;;21.70;67.60;;;;;;6090658;23;20412;-76
2023/08/28 11:03:09;;;;;;;3.27;1.90;;;21.70;67.20;;;;;;6087517;23;20373;-76
2023/08/28 11:05:38;;;;;;;4.80;2.43;;;21.80;67.70;;;;;;6084958;23;20419;-77
2023/08/28 11:08:11;;;;;;;2.07;1.60;;;22.00;66.50;;;;;;6112322;23;20401;-79
2023/08/28 11:10:41;;;;;;;9.10;3.20;;;22.00;66.70;;;;;;6091344;23;20403;-78
2023/08/28 11:13:08;;;;;;;3.47;1.63;;;22.10;63.70;;;;;;6090134;23;20706;-77
2023/08/28 11:15:35;;;;;;;6.00;2.13;;;22.10;64.20;;;;;;6065801;23;20654;-77
2023/08/28 11:18:27;;;;;;;3.93;1.63;;;22.00;64.10;;;;;;6090854;23;20376;-78
2023/08/28 11:20:55;;;;;;;3.97;1.90;;;22.00;63.00;;;;;;6067173;23;20416;-76
2023/08/28 11:23:38;;;;;;;2.83;2.10;;;21.90;63.50;;;;;;6093621;23;20372;-79
2023/08/28 11:26:27;;;;;;;5.53;1.97;;;22.10;63.00;;;;;;6069205;23;20372;-79
2023/08/28 11:28:53;;;;;;;3.10;1.53;;;22.10;61.60;;;;;;6116452;23;20436;-79
2023/08/28 11:31:19;;;;;;;5.10;1.70;;;22.10;61.10;;;;;;6070971;23;20396;-77
2023/08/28 11:33:51;;;;;;;2.43;1.63;;;22.20;59.20;;;;;;6092967;23;20384;-77
2023/08/28 11:36:18;;;;;;;2.50;1.60;;;22.20;58.70;;;;;;6092525;23;20469;-75
2023/08/28 11:38:48;;;;;;;4.83;1.90;;;22.30;58.40;;;;;;6115217;23;20400;-79
2023/08/28 11:41:21;;;;;;;2.60;1.70;;;22.30;57.50;;;;;;6092640;23;20395;-80
2023/08/28 11:43:46;;;;;;;3.10;1.50;;;22.20;57.70;;;;;;6095112;23;20907;-79
2023/08/28 11:46:12;;;;;;;2.47;1.40;;;22.40;58.30;;;;;;6091791;23;20376;-77
2023/08/28 11:48:40;;;;;;;3.47;2.10;;;22.50;58.50;;;;;;6117936;23;20214;-76
2023/08/28 11:51:08;;;;;;;3.23;2.13;;;22.40;59.00;;;;;;6096425;23;20392;-79
2023/08/28 11:53:45;;;;;;;3.37;2.00;;;22.40;59.20;;;;;;6044000;23;20385;-75
2023/08/28 11:56:12;;;;;;;5.47;1.90;;;22.40;59.20;;;;;;6117242;23;20364;-78
2023/08/28 11:58:39;;;;;;;5.40;3.00;;;22.20;59.90;;;;;;6096115;23;20432;-78
2023/08/28 12:01:08;;;;;;;2.93;1.80;;;22.10;59.50;;;;;;6120171;23;20404;-76
2023/08/28 12:03:37;;;;;;;2.90;1.40;;;22.10;59.80;;;;;;6067838;23;20377;-78
2023/08/28 12:06:06;;;;;;;4.63;1.37;;;22.30;59.10;;;;;;6067853;23;20412;-77
2023/08/28 12:08:35;;;;;;;2.53;1.20;;;22.50;58.50;;;;;;6118943;23;20357;-78
2023/08/28 12:11:01;;;;;;;4.47;1.33;;;22.70;57.40;;;;;;6093136;23;20396;-74
2023/08/28 12:13:32;;;;;;;2.83;1.40;;;22.90;56.80;;;;;;6069631;23;20423;-75
2023/08/28 12:16:17;;;;;;;2.30;1.60;;;22.90;56.50;;;;;;6094797;23;20355;-75
2023/08/28 12:18:50;;;;;;;3.90;1.20;;;23.00;56.50;;;;;;6117813;23;20370;-78
2023/08/28 12:21:19;;;;;;;2.30;1.83;;;22.90;55.00;;;;;;6068610;23;20484;-77
2023/08/28 12:23:48;;;;;;;1.83;1.30;;;22.80;55.80;;;;;;6092319;23;20373;-75
2023/08/28 12:26:16;;;;;;;1.50;1.17;;;22.90;55.40;;;;;;6093513;23;20369;-76
2023/08/28 12:28:42;;;;;;;3.13;2.00;;;23.10;55.00;;;;;;6090612;23;20392;-79
2023/08/28 12:31:08;;;;;;;2.33;1.50;;;23.00;55.30;;;;;;6117081;23;20384;-76
2023/08/28 12:33:42;;;;;;;3.03;1.47;;;23.00;55.50;;;;;;6066302;23;20452;-76
2023/08/28 12:36:08;;;;;;;5.60;1.57;;;23.10;55.50;;;;;;6068195;23;20858;-76
2023/08/28 12:38:46;;;;;;;2.67;1.73;;;23.10;55.30;;;;;;6091378;23;20600;-79
2023/08/28 12:41:13;;;;;;;1.70;1.30;;;23.10;55.70;;;;;;6092457;23;20427;-77
2023/08/28 12:43:40;;;;;;;5.93;2.00;;;23.20;55.50;;;;;;6095676;23;20801;-80
2023/08/28 12:46:07;;;;;;;3.00;1.73;;;23.10;55.00;;;;;;6097518;23;20424;-78
2023/08/28 12:48:35;;;;;;;2.70;1.63;;;23.10;55.50;;;;;;6090374;23;20834;-75
2023/08/28 12:51:00;;;;;;;3.43;1.50;;;23.10;55.70;;;;;;6089614;23;20396;-76
2023/08/28 12:53:26;;;;;;;1.73;1.20;;;23.20;55.20;;;;;;6114454;23;20117;-77
2023/08/28 12:55:52;;;;;;;7.83;3.87;;;23.20;55.50;;;;;;6065455;23;20156;-76
2023/08/28 12:58:17;;;;;;;3.53;1.77;;;23.00;54.50;;;;;;6063945;23;20167;-75
2023/08/28 13:00:44;;;;;;;1.93;1.30;;;22.80;55.00;;;;;;6087654;23;20231;-76